createdAt,value
2022-12-19T00:00:28.075Z,9.38
2022-12-19T00:01:31.187Z,9.85
2022-12-19T00:02:32.846Z,9.18
2022-12-19T00:03:34.942Z,9.93
2022-12-19T00:04:36.620Z,9.80
2022-12-19T00:05:39.275Z,9.88
2022-12-19T00:06:43.863Z,9.75
2022-12-19T00:07:48.243Z,8.80
2022-12-19T00:08:50.915Z,9.15
2022-12-19T00:09:53.116Z,9.10
2022-12-19T00:10:59.763Z,8.73
2022-12-19T00:12:01.308Z,8.48
2022-12-19T00:13:02.781Z,8.82
2022-12-19T00:14:04.340Z,8.55
2022-12-19T00:15:06.130Z,9.52
2022-12-19T00:16:09.340Z,9.52
2022-12-19T00:17:10.926Z,8.68
2022-12-19T00:18:12.813Z,9.50
2022-12-19T00:19:14.331Z,9.05
2022-12-19T00:20:18.472Z,8.85
2022-12-19T00:21:21.853Z,9.05
2022-12-19T00:22:23.665Z,9.27
2022-12-19T00:23:25.349Z,9.52
2022-12-19T00:24:27.173Z,10.07
2022-12-19T00:25:28.647Z,9.18
2022-12-19T00:26:31.851Z,7.85
2022-12-19T00:27:36.617Z,10.73
2022-12-19T00:28:38.284Z,9.70
2022-12-19T00:29:39.743Z,9.48
2022-12-19T00:30:41.212Z,8.32
2022-12-19T00:31:42.753Z,7.90
2022-12-19T00:32:44.260Z,9.50
2022-12-19T00:33:45.807Z,12.13
2022-12-19T00:34:47.599Z,11.02
2022-12-19T00:35:49.046Z,9.82
2022-12-19T00:37:52.352Z,9.05
2022-12-19T00:38:54.879Z,8.52
2022-12-19T00:39:56.687Z,8.93
2022-12-19T00:41:11.328Z,10.15
2022-12-19T00:42:13.039Z,9.20
2022-12-19T00:43:14.515Z,9.30
2022-12-19T00:44:16.253Z,10.18
2022-12-19T00:45:17.692Z,8.25
2022-12-19T00:47:20.938Z,9.35
2022-12-19T00:48:22.386Z,7.90
2022-12-19T00:49:24.041Z,9.90
2022-12-19T00:50:25.524Z,9.43
2022-12-19T00:51:28.451Z,10.20
2022-12-19T00:52:29.937Z,7.40
2022-12-19T00:53:33.421Z,8.23
2022-12-19T00:54:35.060Z,9.10
2022-12-19T00:55:37.999Z,8.75
2022-12-19T00:56:39.475Z,9.45
2022-12-19T00:57:41.105Z,8.70
2022-12-19T00:58:46.843Z,9.25
2022-12-19T00:59:49.213Z,8.02
2022-12-19T01:00:50.870Z,9.38
2022-12-19T01:01:52.580Z,10.57
2022-12-19T01:02:54.314Z,7.65
2022-12-19T01:04:27.295Z,8.82
2022-12-19T01:05:19.452Z,8.10
2022-12-19T01:06:21.321Z,10.05
2022-12-19T01:20:01.186Z,7.47
2022-12-19T01:21:04.461Z,10.07
2022-12-19T01:22:06.304Z,8.73
2022-12-19T01:23:09.177Z,9.60
2022-12-19T01:24:11.107Z,7.97
2022-12-19T01:25:13.157Z,12.20
2022-12-19T01:26:14.979Z,9.00
2022-12-19T01:27:16.442Z,7.97
2022-12-19T01:28:18.344Z,10.20
2022-12-19T01:29:20.900Z,8.85
2022-12-19T01:30:22.624Z,8.40
2022-12-19T01:31:24.696Z,8.75
2022-12-19T01:32:26.248Z,9.18
2022-12-19T01:33:27.747Z,6.90
2022-12-19T01:34:29.280Z,9.73
2022-12-19T01:35:30.742Z,8.27
2022-12-19T01:36:32.433Z,9.10
2022-12-19T01:37:34.227Z,9.73
2022-12-19T01:38:36.167Z,9.55
2022-12-19T01:39:37.857Z,9.07
2022-12-19T01:40:41.368Z,8.30
2022-12-19T01:41:43.011Z,11.05
2022-12-19T01:42:44.580Z,7.72
2022-12-19T01:43:57.304Z,9.00
2022-12-19T01:45:04.347Z,8.77
2022-12-19T01:46:06.685Z,8.90
2022-12-19T01:47:12.674Z,9.95
2022-12-19T01:48:17.399Z,9.63
2022-12-19T01:49:25.779Z,8.52
2022-12-19T01:50:30.845Z,9.15
2022-12-19T01:51:39.945Z,8.93
2022-12-19T01:52:41.908Z,8.57
2022-12-19T01:53:49.303Z,7.93
2022-12-19T01:54:51.408Z,9.35
2022-12-19T01:55:53.236Z,8.75
2022-12-19T01:56:56.175Z,9.73
2022-12-19T01:57:59.299Z,9.25
2022-12-19T01:59:06.448Z,7.70
2022-12-19T02:00:11.784Z,8.40
2022-12-19T02:01:14.227Z,9.50
2022-12-19T02:02:25.869Z,9.20
2022-12-19T02:03:29.030Z,10.77
2022-12-19T02:04:32.423Z,11.48
2022-12-19T02:05:34.363Z,8.73
2022-12-19T02:06:36.452Z,10.00
2022-12-19T02:07:38.823Z,14.13
2022-12-19T02:08:41.233Z,11.05
2022-12-19T02:09:43.657Z,10.07
2022-12-19T02:10:45.245Z,12.57
2022-12-19T02:11:49.708Z,8.55
2022-12-19T02:12:51.319Z,9.82
2022-12-19T02:13:53.365Z,8.30
2022-12-19T02:14:56.803Z,10.85
2022-12-19T02:16:21.419Z,7.55
2022-12-19T02:17:51.291Z,9.25
2022-12-19T02:19:02.889Z,8.23
2022-12-19T02:20:10.271Z,8.77
2022-12-19T02:21:38.125Z,11.10
2022-12-19T02:22:41.305Z,9.15
2022-12-19T02:23:49.265Z,7.78
2022-12-19T02:25:02.934Z,7.90
2022-12-19T02:26:16.596Z,7.75
2022-12-19T02:27:44.584Z,10.80
2022-12-19T02:29:04.728Z,9.00
2022-12-19T02:30:10.626Z,8.52
2022-12-19T02:31:24.076Z,8.63
2022-12-19T02:32:32.004Z,9.38
2022-12-19T02:33:54.441Z,9.20
2022-12-19T02:35:24.060Z,9.68
2022-12-19T02:36:45.289Z,7.57
2022-12-19T02:37:55.919Z,10.75
2022-12-19T02:39:07.048Z,9.05
2022-12-19T02:40:15.154Z,10.80
2022-12-19T02:41:43.284Z,10.68
2022-12-19T02:42:48.880Z,10.98
2022-12-19T02:43:56.390Z,10.43
2022-12-19T02:45:01.541Z,9.80
2022-12-19T02:46:04.052Z,9.20
2022-12-19T02:47:06.880Z,8.45
2022-12-19T02:48:09.594Z,12.05
2022-12-19T02:49:12.047Z,11.13
2022-12-19T02:50:18.122Z,11.50
2022-12-19T02:51:19.612Z,13.40
2022-12-19T02:52:21.196Z,12.57
2022-12-19T02:53:23.912Z,11.98
2022-12-19T02:54:25.748Z,12.57
2022-12-19T02:55:27.279Z,11.20
2022-12-19T02:56:35.743Z,11.60
2022-12-19T02:57:41.989Z,10.05
2022-12-19T06:54:42.596Z,24.45
2022-12-19T06:55:47.118Z,24.23
2022-12-19T06:56:48.730Z,21.98
2022-12-19T06:57:50.318Z,22.60
2022-12-19T06:58:52.101Z,23.85
2022-12-19T06:59:53.680Z,21.80
2022-12-19T07:00:56.497Z,22.58
2022-12-19T07:02:00.276Z,22.60
